Sobieski, Wisconsin
Current Conditions -  °F | °C
As of 2:30 PM on Saturday 25 Oct 2014 (Local Time) from KOCQ Reporting Station
Clear Clear  
Wind Chill: 64°   Ceiling: Unl
Heat Index: 64°   Visibility: 10mi
Dew Point: 28°   Wind: 15mph
Humidity: 25%   Direction: 310°NW
Pressure: 29.78"   Gusts: 21mph
Location:  44.72°N, 88.07°W
Report Text: KOCQ 251930Z AUTO 31013G18KT 10SM CLR 18/M02 A2978 RMK AO1 T01801023
Loading
Personal Weather Stations






























Interactive Weather Map
Tropical Storm Tracking
New forecast layout! Learn more

10-Day Weather Forecast

Advertisements
Track Severe Weather on mobile